sensor_id;sensor_type;location;lat;lon;timestamp;pressure;altitude;pressure_sealevel;temperature;humidity
5954;BME280;3002;42.642;24.812;2023-04-01T00:00:06;95645.56;;;14.28;57.04
5954;BME280;3002;42.642;24.812;2023-04-01T00:02:32;95612.22;;;14.11;56.98
5954;BME280;3002;42.642;24.812;2023-04-01T00:04:57;95618.41;;;14.12;57.51
5954;BME280;3002;42.642;24.812;2023-04-01T00:07:23;95602.19;;;13.49;58.88
5954;BME280;3002;42.642;24.812;2023-04-01T00:09:48;95637.56;;;13.48;60.28
5954;BME280;3002;42.642;24.812;2023-04-01T00:12:14;95642.81;;;13.44;61.33
5954;BME280;3002;42.642;24.812;2023-04-01T00:14:39;95626.34;;;13.37;60.65
5954;BME280;3002;42.642;24.812;2023-04-01T00:17:05;95604.44;;;13.47;59.45
5954;BME280;3002;42.642;24.812;2023-04-01T00:19:30;95628.31;;;13.78;58.70
5954;BME280;3002;42.642;24.812;2023-04-01T00:21:57;95620.91;;;13.96;58.43
5954;BME280;3002;42.642;24.812;2023-04-01T00:24:23;95630.78;;;14.13;57.49
5954;BME280;3002;42.642;24.812;2023-04-01T00:26:49;95642.88;;;14.28;57.63
5954;BME280;3002;42.642;24.812;2023-04-01T00:29:14;95627.47;;;14.28;57.33
5954;BME280;3002;42.642;24.812;2023-04-01T00:31:40;95618.66;;;14.19;57.18
5954;BME280;3002;42.642;24.812;2023-04-01T00:34:05;95627.16;;;14.09;57.19
5954;BME280;3002;42.642;24.812;2023-04-01T00:36:31;95630.34;;;13.60;59.98
5954;BME280;3002;42.642;24.812;2023-04-01T00:38:57;95640.34;;;13.60;60.06
5954;BME280;3002;42.642;24.812;2023-04-01T00:41:24;95627.38;;;14.04;59.77
5954;BME280;3002;42.642;24.812;2023-04-01T00:43:51;95621.09;;;14.12;59.33
5954;BME280;3002;42.642;24.812;2023-04-01T00:46:17;95626.06;;;14.10;59.30
5954;BME280;3002;42.642;24.812;2023-04-01T00:48:51;95618.63;;;13.86;60.41
5954;BME280;3002;42.642;24.812;2023-04-01T00:51:22;95590.81;;;13.94;60.53
5954;BME280;3002;42.642;24.812;2023-04-01T00:53:51;95609.19;;;14.13;60.14
5954;BME280;3002;42.642;24.812;2023-04-01T00:56:39;95629.06;;;14.29;60.10
5954;BME280;3002;42.642;24.812;2023-04-01T00:59:18;95607.69;;;13.82;61.20
5954;BME280;3002;42.642;24.812;2023-04-01T01:01:46;95601.44;;;13.90;61.35
5954;BME280;3002;42.642;24.812;2023-04-01T01:07:38;95618.84;;;14.14;60.88
5954;BME280;3002;42.642;24.812;2023-04-01T01:10:17;95604.47;;;14.10;60.86
5954;BME280;3002;42.642;24.812;2023-04-01T01:12:46;95576.41;;;13.69;62.22
5954;BME280;3002;42.642;24.812;2023-04-01T01:15:46;95612.22;;;13.90;62.44
5954;BME280;3002;42.642;24.812;2023-04-01T01:21:25;95621.88;;;13.71;63.71
5954;BME280;3002;42.642;24.812;2023-04-01T01:27:11;95608.66;;;13.57;64.84
5954;BME280;3002;42.642;24.812;2023-04-01T01:37:40;95571.16;;;13.22;65.56
5954;BME280;3002;42.642;24.812;2023-04-01T01:40:10;95562.31;;;13.13;66.09
5954;BME280;3002;42.642;24.812;2023-04-01T01:42:39;95563.16;;;13.05;66.20
5954;BME280;3002;42.642;24.812;2023-04-01T01:45:07;95560.13;;;13.06;66.19
5954;BME280;3002;42.642;24.812;2023-04-01T01:47:35;95556.19;;;13.04;66.28
5954;BME280;3002;42.642;24.812;2023-04-01T01:50:02;95586.16;;;12.94;67.71
5954;BME280;3002;42.642;24.812;2023-04-01T01:52:30;95568.00;;;12.82;68.36
5954;BME280;3002;42.642;24.812;2023-04-01T01:54:57;95580.66;;;12.90;68.68
5954;BME280;3002;42.642;24.812;2023-04-01T01:57:31;95563.00;;;13.01;68.27
5954;BME280;3002;42.642;24.812;2023-04-01T02:00:03;95568.34;;;12.80;69.50
5954;BME280;3002;42.642;24.812;2023-04-01T02:02:31;95531.91;;;12.53;69.53
5954;BME280;3002;42.642;24.812;2023-04-01T02:04:57;95577.28;;;12.93;69.20
5954;BME280;3002;42.642;24.812;2023-04-01T02:07:30;95534.66;;;12.74;68.99
5954;BME280;3002;42.642;24.812;2023-04-01T02:09:58;95536.88;;;12.72;68.83
5954;BME280;3002;42.642;24.812;2023-04-01T02:12:24;95578.63;;;12.78;70.54
5954;BME280;3002;42.642;24.812;2023-04-01T02:15:06;95579.56;;;12.82;71.35
5954;BME280;3002;42.642;24.812;2023-04-01T02:17:34;95582.78;;;13.05;69.87
5954;BME280;3002;42.642;24.812;2023-04-01T02:20:11;95553.06;;;13.02;69.44
5954;BME280;3002;42.642;24.812;2023-04-01T02:22:51;95573.06;;;13.22;69.86
5954;BME280;3002;42.642;24.812;2023-04-01T02:25:27;95552.94;;;12.90;71.13
5954;BME280;3002;42.642;24.812;2023-04-01T02:27:55;95571.66;;;13.16;71.37
5954;BME280;3002;42.642;24.812;2023-04-01T02:30:22;95549.00;;;12.87;72.32
5954;BME280;3002;42.642;24.812;2023-04-01T02:32:49;95561.59;;;12.95;72.48
5954;BME280;3002;42.642;24.812;2023-04-01T02:35:15;95520.22;;;12.79;72.41
5954;BME280;3002;42.642;24.812;2023-04-01T02:37:42;95529.44;;;13.07;71.60
5954;BME280;3002;42.642;24.812;2023-04-01T02:40:13;95563.31;;;13.38;70.59
5954;BME280;3002;42.642;24.812;2023-04-01T02:42:38;95546.06;;;13.01;72.31
5954;BME280;3002;42.642;24.812;2023-04-01T02:45:05;95512.69;;;12.72;73.36
5954;BME280;3002;42.642;24.812;2023-04-01T02:47:31;95521.84;;;12.71;73.34
5954;BME280;3002;42.642;24.812;2023-04-01T02:49:56;95536.31;;;12.88;72.60
5954;BME280;3002;42.642;24.812;2023-04-01T02:52:27;95527.97;;;12.80;73.20
5954;BME280;3002;42.642;24.812;2023-04-01T02:54:53;95506.59;;;12.46;73.47
5954;BME280;3002;42.642;24.812;2023-04-01T02:57:19;95541.78;;;12.70;72.70
5954;BME280;3002;42.642;24.812;2023-04-01T02:59:45;95534.19;;;12.72;72.80
5954;BME280;3002;42.642;24.812;2023-04-01T03:02:10;95505.97;;;12.40;74.37
5954;BME280;3002;42.642;24.812;2023-04-01T03:04:36;95498.53;;;12.46;74.45
5954;BME280;3002;42.642;24.812;2023-04-01T03:07:02;95489.91;;;12.23;75.76
5954;BME280;3002;42.642;24.812;2023-04-01T03:09:28;95488.88;;;12.53;74.29
5954;BME280;3002;42.642;24.812;2023-04-01T03:11:56;95525.63;;;12.70;73.99
5954;BME280;3002;42.642;24.812;2023-04-01T03:14:22;95523.28;;;12.69;74.72
5954;BME280;3002;42.642;24.812;2023-04-01T03:16:47;95515.06;;;12.65;76.15
5954;BME280;3002;42.642;24.812;2023-04-01T03:19:12;95513.75;;;12.71;76.75
5954;BME280;3002;42.642;24.812;2023-04-01T03:21:38;95508.19;;;12.76;75.99
5954;BME280;3002;42.642;24.812;2023-04-01T03:24:04;95472.63;;;12.71;75.97
5954;BME280;3002;42.642;24.812;2023-04-01T03:26:29;95482.88;;;12.77;75.46
5954;BME280;3002;42.642;24.812;2023-04-01T03:28:55;95493.44;;;12.82;74.87
5954;BME280;3002;42.642;24.812;2023-04-01T03:31:22;95494.38;;;12.86;74.92
5954;BME280;3002;42.642;24.812;2023-04-01T03:33:47;95510.53;;;12.86;73.99
5954;BME280;3002;42.642;24.812;2023-04-01T03:36:13;95511.84;;;12.80;74.57
5954;BME280;3002;42.642;24.812;2023-04-01T03:38:43;95513.38;;;12.90;74.77
5954;BME280;3002;42.642;24.812;2023-04-01T03:41:14;95502.66;;;12.81;74.39
5954;BME280;3002;42.642;24.812;2023-04-01T03:43:40;95513.66;;;12.97;74.05
5954;BME280;3002;42.642;24.812;2023-04-01T03:46:05;95513.56;;;12.85;74.71
5954;BME280;3002;42.642;24.812;2023-04-01T03:48:31;95517.91;;;12.69;75.90
5954;BME280;3002;42.642;24.812;2023-04-01T03:50:56;95534.00;;;12.77;76.68
5954;BME280;3002;42.642;24.812;2023-04-01T03:53:22;95529.50;;;12.61;77.32
5954;BME280;3002;42.642;24.812;2023-04-01T03:55:47;95557.06;;;12.87;76.46
5954;BME280;3002;42.642;24.812;2023-04-01T03:58:13;95552.97;;;12.81;76.00
5954;BME280;3002;42.642;24.812;2023-04-01T04:00:38;95519.28;;;12.37;78.50
5954;BME280;3002;42.642;24.812;2023-04-01T04:03:05;95533.03;;;12.44;78.60
5954;BME280;3002;42.642;24.812;2023-04-01T04:05:31;95541.56;;;12.46;77.72
5954;BME280;3002;42.642;24.812;2023-04-01T04:07:57;95543.84;;;12.65;77.26
5954;BME280;3002;42.642;24.812;2023-04-01T04:10:22;95513.59;;;12.38;77.16
5954;BME280;3002;42.642;24.812;2023-04-01T04:12:50;95536.84;;;12.43;79.03
5954;BME280;3002;42.642;24.812;2023-04-01T04:15:16;95506.59;;;12.46;77.79
5954;BME280;3002;42.642;24.812;2023-04-01T04:17:42;95522.22;;;12.52;77.24
5954;BME280;3002;42.642;24.812;2023-04-01T04:20:08;95518.72;;;12.61;77.13
5954;BME280;3002;42.642;24.812;2023-04-01T04:22:34;95502.50;;;12.40;77.99
5954;BME280;3002;42.642;24.812;2023-04-01T04:24:59;95522.22;;;12.52;78.00
5954;BME280;3002;42.642;24.812;2023-04-01T04:27:25;95530.06;;;12.37;78.79
5954;BME280;3002;42.642;24.812;2023-04-01T04:29:50;95497.16;;;12.31;79.22
5954;BME280;3002;42.642;24.812;2023-04-01T04:32:16;95521.16;;;12.53;78.92
5954;BME280;3002;42.642;24.812;2023-04-01T04:34:41;95524.25;;;12.64;77.67
5954;BME280;3002;42.642;24.812;2023-04-01T04:37:06;95485.16;;;12.67;75.94
5954;BME280;3002;42.642;24.812;2023-04-01T04:39:32;95492.66;;;13.11;73.72
5954;BME280;3002;42.642;24.812;2023-04-01T04:41:58;95513.78;;;13.30;72.37
5954;BME280;3002;42.642;24.812;2023-04-01T04:44:23;95515.41;;;13.23;72.53
5954;BME280;3002;42.642;24.812;2023-04-01T04:46:48;95544.59;;;13.42;72.39
5954;BME280;3002;42.642;24.812;2023-04-01T04:49:14;95531.72;;;13.89;70.13
5954;BME280;3002;42.642;24.812;2023-04-01T04:51:40;95502.78;;;13.98;67.74
5954;BME280;3002;42.642;24.812;2023-04-01T04:54:06;95549.94;;;14.25;67.71
5954;BME280;3002;42.642;24.812;2023-04-01T04:56:32;95515.22;;;14.93;63.77
5954;BME280;3002;42.642;24.812;2023-04-01T04:58:58;95535.97;;;15.94;59.40
5954;BME280;3002;42.642;24.812;2023-04-01T05:01:24;95488.16;;;15.42;59.77
5954;BME280;3002;42.642;24.812;2023-04-01T05:03:50;95502.38;;;15.15;61.10
5954;BME280;3002;42.642;24.812;2023-04-01T05:06:18;95512.84;;;14.22;65.50
5954;BME280;3002;42.642;24.812;2023-04-01T05:08:44;95487.94;;;13.92;66.83
5954;BME280;3002;42.642;24.812;2023-04-01T05:11:13;95475.59;;;14.03;65.72
5954;BME280;3002;42.642;24.812;2023-04-01T05:13:39;95462.00;;;13.04;71.22
5954;BME280;3002;42.642;24.812;2023-04-01T05:16:11;95453.06;;;13.21;71.04
5954;BME280;3002;42.642;24.812;2023-04-01T05:18:37;95480.84;;;13.66;68.74
5954;BME280;3002;42.642;24.812;2023-04-01T05:21:03;95470.66;;;13.72;68.17
5954;BME280;3002;42.642;24.812;2023-04-01T05:23:30;95506.16;;;14.07;68.28
5954;BME280;3002;42.642;24.812;2023-04-01T05:25:56;95474.53;;;13.50;71.96
5954;BME280;3002;42.642;24.812;2023-04-01T05:28:22;95451.91;;;13.43;71.74
5954;BME280;3002;42.642;24.812;2023-04-01T05:30:48;95444.56;;;12.51;76.89
5954;BME280;3002;42.642;24.812;2023-04-01T05:33:13;95433.97;;;12.84;74.88
5954;BME280;3002;42.642;24.812;2023-04-01T05:35:40;95472.25;;;13.73;71.71
5954;BME280;3002;42.642;24.812;2023-04-01T05:38:05;95440.72;;;13.74;69.67
5954;BME280;3002;42.642;24.812;2023-04-01T05:40:31;95466.09;;;13.85;70.94
5954;BME280;3002;42.642;24.812;2023-04-01T05:42:58;95467.09;;;13.68;70.43
5954;BME280;3002;42.642;24.812;2023-04-01T05:45:24;95448.53;;;13.66;69.60
5954;BME280;3002;42.642;24.812;2023-04-01T05:47:50;95463.38;;;14.06;68.75
5954;BME280;3002;42.642;24.812;2023-04-01T05:50:15;95438.19;;;14.02;67.53
5954;BME280;3002;42.642;24.812;2023-04-01T05:52:41;95457.09;;;14.14;67.39
5954;BME280;3002;42.642;24.812;2023-04-01T05:55:07;95430.59;;;14.04;67.94
5954;BME280;3002;42.642;24.812;2023-04-01T05:57:33;95430.69;;;14.19;68.02
5954;BME280;3002;42.642;24.812;2023-04-01T05:59:59;95374.34;;;13.69;69.14
5954;BME280;3002;42.642;24.812;2023-04-01T06:02:25;95425.88;;;14.37;66.87
5954;BME280;3002;42.642;24.812;2023-04-01T06:05:11;95426.56;;;14.22;67.30
5954;BME280;3002;42.642;24.812;2023-04-01T06:07:37;95421.56;;;14.00;68.88
5954;BME280;3002;42.642;24.812;2023-04-01T06:10:10;95434.47;;;13.28;77.19
5954;BME280;3002;42.642;24.812;2023-04-01T06:12:47;95430.72;;;13.74;77.03
5954;BME280;3002;42.642;24.812;2023-04-01T06:18:20;95449.91;;;14.18;73.67
5954;BME280;3002;42.642;24.812;2023-04-01T06:31:50;95399.41;;;14.64;66.26
5954;BME280;3002;42.642;24.812;2023-04-01T06:40:19;95401.28;;;14.88;67.96
5954;BME280;3002;42.642;24.812;2023-04-01T06:50:57;95419.31;;;16.55;58.60
5954;BME280;3002;42.642;24.812;2023-04-01T06:53:34;95449.97;;;17.65;55.85
5954;BME280;3002;42.642;24.812;2023-04-01T06:56:09;95438.47;;;18.56;51.61
5954;BME280;3002;42.642;24.812;2023-04-01T06:58:40;95460.25;;;20.33;48.08
5954;BME280;3002;42.642;24.812;2023-04-01T07:01:12;95445.13;;;22.26;43.24
5954;BME280;3002;42.642;24.812;2023-04-01T07:04:05;95465.16;;;21.68;42.84
5954;BME280;3002;42.642;24.812;2023-04-01T07:06:36;95439.88;;;21.81;43.25
5954;BME280;3002;42.642;24.812;2023-04-01T07:09:06;95420.53;;;22.26;41.52
5954;BME280;3002;42.642;24.812;2023-04-01T07:11:37;95424.09;;;22.90;40.63
5954;BME280;3002;42.642;24.812;2023-04-01T07:14:16;95410.31;;;23.44;39.66
5954;BME280;3002;42.642;24.812;2023-04-01T07:17:19;95416.47;;;24.95;38.12
5954;BME280;3002;42.642;24.812;2023-04-01T07:19:51;95413.59;;;24.68;36.80
5954;BME280;3002;42.642;24.812;2023-04-01T07:22:42;95409.50;;;23.65;38.60
5954;BME280;3002;42.642;24.812;2023-04-01T07:25:18;95394.03;;;22.62;40.28
5954;BME280;3002;42.642;24.812;2023-04-01T07:27:45;95368.34;;;19.15;47.66
5954;BME280;3002;42.642;24.812;2023-04-01T07:30:16;95396.28;;;21.16;43.56
5954;BME280;3002;42.642;24.812;2023-04-01T07:35:30;95410.31;;;23.44;39.63
5954;BME280;3002;42.642;24.812;2023-04-01T07:38:22;95401.34;;;23.36;39.53
5954;BME280;3002;42.642;24.812;2023-04-01T07:49:20;95389.25;;;21.11;43.88
5954;BME280;3002;42.642;24.812;2023-04-01T07:52:07;95373.22;;;21.79;43.66
5954;BME280;3002;42.642;24.812;2023-04-01T08:05:53;95340.72;;;18.30;52.40
5954;BME280;3002;42.642;24.812;2023-04-01T08:08:36;95354.03;;;18.15;52.45
5954;BME280;3002;42.642;24.812;2023-04-01T08:11:22;95371.75;;;17.86;53.59
5954;BME280;3002;42.642;24.812;2023-04-01T08:14:08;95354.97;;;18.50;52.29
5954;BME280;3002;42.642;24.812;2023-04-01T08:20:14;95331.75;;;17.80;53.45
5954;BME280;3002;42.642;24.812;2023-04-01T08:22:21;95312.75;;;17.18;54.97
5954;BME280;3002;42.642;24.812;2023-04-01T08:24:49;95327.06;;;17.77;54.16
5954;BME280;3002;42.642;24.812;2023-04-01T08:27:22;95314.56;;;17.72;54.01
5954;BME280;3002;42.642;24.812;2023-04-01T08:29:54;95284.19;;;17.44;54.45
5954;BME280;3002;42.642;24.812;2023-04-01T08:32:28;95300.47;;;17.86;53.91
5954;BME280;3002;42.642;24.812;2023-04-01T08:35:30;95313.69;;;18.37;53.04
5954;BME280;3002;42.642;24.812;2023-04-01T08:37:55;95291.72;;;17.96;53.34
5954;BME280;3002;42.642;24.812;2023-04-01T08:53:15;95292.81;;;16.52;58.38
5954;BME280;3002;42.642;24.812;2023-04-01T09:22:24;95252.66;;;18.54;52.99
5954;BME280;3002;42.642;24.812;2023-04-01T09:34:34;95236.56;;;19.35;50.92
5954;BME280;3002;42.642;24.812;2023-04-01T09:37:17;95194.91;;;18.87;50.76
5954;BME280;3002;42.642;24.812;2023-04-01T09:45:52;95201.00;;;19.55;50.73
5954;BME280;3002;42.642;24.812;2023-04-01T10:06:08;95195.06;;;19.42;50.80
5954;BME280;3002;42.642;24.812;2023-04-01T10:09:19;95196.56;;;19.36;50.94
5954;BME280;3002;42.642;24.812;2023-04-01T10:23:22;95163.75;;;20.10;49.46
5954;BME280;3002;42.642;24.812;2023-04-01T10:32:20;95159.75;;;20.59;48.38
5954;BME280;3002;42.642;24.812;2023-04-01T10:43:28;95130.59;;;18.98;53.02
5954;BME280;3002;42.642;24.812;2023-04-01T11:05:52;95084.03;;;24.53;40.98
5954;BME280;3002;42.642;24.812;2023-04-01T11:25:36;95034.25;;;22.34;45.26
5954;BME280;3002;42.642;24.812;2023-04-01T11:28:23;95001.22;;;22.03;45.21
5954;BME280;3002;42.642;24.812;2023-04-01T11:33:57;95017.19;;;22.82;44.68
5954;BME280;3002;42.642;24.812;2023-04-01T11:39:15;95006.78;;;22.62;44.74
5954;BME280;3002;42.642;24.812;2023-04-01T11:45:15;94995.94;;;23.07;43.12
5954;BME280;3002;42.642;24.812;2023-04-01T11:48:27;94995.06;;;23.59;42.39
5954;BME280;3002;42.642;24.812;2023-04-01T12:06:08;94988.16;;;24.19;41.42
5954;BME280;3002;42.642;24.812;2023-04-01T12:08:55;94977.91;;;23.92;41.38
5954;BME280;3002;42.642;24.812;2023-04-01T12:17:03;94950.63;;;23.06;41.97
5954;BME280;3002;42.642;24.812;2023-04-01T12:19:43;94953.19;;;22.79;43.03
5954;BME280;3002;42.642;24.812;2023-04-01T12:30:21;94918.72;;;23.34;41.33
5954;BME280;3002;42.642;24.812;2023-04-01T12:35:27;94928.97;;;25.02;38.60
5954;BME280;3002;42.642;24.812;2023-04-01T12:38:35;94925.72;;;25.11;38.61
5954;BME280;3002;42.642;24.812;2023-04-01T12:41:07;94926.25;;;23.94;40.33
5954;BME280;3002;42.642;24.812;2023-04-01T12:47:12;94924.66;;;22.32;43.41
5954;BME280;3002;42.642;24.812;2023-04-01T12:53:36;94920.47;;;22.06;44.71
5954;BME280;3002;42.642;24.812;2023-04-01T12:55:52;94908.56;;;21.64;45.58
5954;BME280;3002;42.642;24.812;2023-04-01T13:15:19;94871.84;;;21.86;45.12
5954;BME280;3002;42.642;24.812;2023-04-01T13:18:19;94869.81;;;22.01;44.72
5954;BME280;3002;42.642;24.812;2023-04-01T13:26:18;94878.69;;;21.35;45.23
5954;BME280;3002;42.642;24.812;2023-04-01T13:28:58;94893.53;;;20.99;46.73
5954;BME280;3002;42.642;24.812;2023-04-01T13:42:21;95040.06;;;18.87;48.38
5954;BME280;3002;42.642;24.812;2023-04-01T14:07:05;95118.00;;;15.74;90.88
5954;BME280;3002;42.642;24.812;2023-04-01T14:12:36;95114.41;;;15.86;89.08
5954;BME280;3002;42.642;24.812;2023-04-01T14:18:02;95080.31;;;16.00;85.44
5954;BME280;3002;42.642;24.812;2023-04-01T14:20:53;95070.09;;;16.10;87.60
5954;BME280;3002;42.642;24.812;2023-04-01T14:24:43;95072.84;;;16.32;84.89
5954;BME280;3002;42.642;24.812;2023-04-01T14:41:17;95016.53;;;17.07;67.79
5954;BME280;3002;42.642;24.812;2023-04-01T14:49:43;95009.50;;;17.02;76.76
5954;BME280;3002;42.642;24.812;2023-04-01T14:52:33;94996.19;;;17.17;75.57
5954;BME280;3002;42.642;24.812;2023-04-01T14:55:11;94979.63;;;17.22;74.02
5954;BME280;3002;42.642;24.812;2023-04-01T14:57:58;95004.47;;;17.84;68.86
5954;BME280;3002;42.642;24.812;2023-04-01T15:00:47;94936.28;;;17.52;69.50
5954;BME280;3002;42.642;24.812;2023-04-01T15:03:30;94924.91;;;17.12;76.68
5954;BME280;3002;42.642;24.812;2023-04-01T15:09:30;94892.75;;;18.08;69.62
5954;BME280;3002;42.642;24.812;2023-04-01T15:33:10;94942.34;;;17.15;82.29
5954;BME280;3002;42.642;24.812;2023-04-01T15:43:43;94955.09;;;16.62;81.29
5954;BME280;3002;42.642;24.812;2023-04-01T15:46:21;94930.78;;;15.96;84.54
5954;BME280;3002;42.642;24.812;2023-04-01T15:51:58;94967.84;;;15.96;86.20
5954;BME280;3002;42.642;24.812;2023-04-01T16:02:48;94993.91;;;15.85;83.05
5954;BME280;3002;42.642;24.812;2023-04-01T16:05:41;95006.75;;;16.11;77.92
5954;BME280;3002;42.642;24.812;2023-04-01T16:08:21;95007.44;;;16.27;74.93
5954;BME280;3002;42.642;24.812;2023-04-01T16:14:38;94986.53;;;16.70;69.51
5954;BME280;3002;42.642;24.812;2023-04-01T16:20:18;95010.13;;;17.19;67.79
5954;BME280;3002;42.642;24.812;2023-04-01T16:26:01;95020.69;;;17.01;62.88
5954;BME280;3002;42.642;24.812;2023-04-01T16:28:34;94994.19;;;17.13;59.21
5954;BME280;3002;42.642;24.812;2023-04-01T16:31:25;95025.47;;;17.34;58.96
5954;BME280;3002;42.642;24.812;2023-04-01T16:34:19;94988.31;;;17.34;56.63
5954;BME280;3002;42.642;24.812;2023-04-01T16:36:53;94997.69;;;17.41;55.93
5954;BME280;3002;42.642;24.812;2023-04-01T16:45:00;95035.88;;;17.58;58.75
5954;BME280;3002;42.642;24.812;2023-04-01T16:47:34;95035.63;;;17.41;59.96
5954;BME280;3002;42.642;24.812;2023-04-01T16:50:13;95038.63;;;17.35;60.63
5954;BME280;3002;42.642;24.812;2023-04-01T16:52:53;95031.81;;;17.19;62.24
5954;BME280;3002;42.642;24.812;2023-04-01T16:55:34;95020.22;;;16.95;63.67
5954;BME280;3002;42.642;24.812;2023-04-01T16:58:01;95019.91;;;17.00;61.81
5954;BME280;3002;42.642;24.812;2023-04-01T17:00:39;95022.63;;;17.27;61.51
5954;BME280;3002;42.642;24.812;2023-04-01T17:03:13;95026.22;;;17.08;62.83
5954;BME280;3002;42.642;24.812;2023-04-01T17:06:24;95029.66;;;17.05;64.50
5954;BME280;3002;42.642;24.812;2023-04-01T17:09:04;95029.56;;;16.98;64.77
5954;BME280;3002;42.642;24.812;2023-04-01T17:17:29;95044.72;;;16.37;73.19
5954;BME280;3002;42.642;24.812;2023-04-01T17:23:13;95061.16;;;15.70;83.72
5954;BME280;3002;42.642;24.812;2023-04-01T17:45:24;95144.38;;;15.96;83.67
5954;BME280;3002;42.642;24.812;2023-04-01T17:53:51;95194.78;;;16.24;85.73
5954;BME280;3002;42.642;24.812;2023-04-01T17:59:38;95226.06;;;16.05;89.02
5954;BME280;3002;42.642;24.812;2023-04-01T18:05:26;95229.75;;;15.50;82.04
5954;BME280;3002;42.642;24.812;2023-04-01T18:08:12;95158.38;;;15.35;75.75
5954;BME280;3002;42.642;24.812;2023-04-01T18:16:35;95102.34;;;15.16;84.93
5954;BME280;3002;42.642;24.812;2023-04-01T18:19:31;95119.19;;;15.10;90.95
5954;BME280;3002;42.642;24.812;2023-04-01T18:22:21;95102.81;;;15.18;85.62
5954;BME280;3002;42.642;24.812;2023-04-01T18:28:11;95100.94;;;15.38;73.74
5954;BME280;3002;42.642;24.812;2023-04-01T18:30:39;95097.56;;;15.25;64.29
5954;BME280;3002;42.642;24.812;2023-04-01T18:35:53;95160.28;;;15.03;80.89
5954;BME280;3002;42.642;24.812;2023-04-01T18:38:35;95181.75;;;14.84;88.98
5954;BME280;3002;42.642;24.812;2023-04-01T18:41:14;95202.50;;;14.39;96.29
5954;BME280;3002;42.642;24.812;2023-04-01T18:46:48;95191.22;;;14.09;99.19
5954;BME280;3002;42.642;24.812;2023-04-01T18:52:10;95203.25;;;14.00;96.06
5954;BME280;3002;42.642;24.812;2023-04-01T18:57:27;95170.09;;;14.11;88.52
5954;BME280;3002;42.642;24.812;2023-04-01T19:00:35;95200.59;;;14.40;84.34
5954;BME280;3002;42.642;24.812;2023-04-01T19:05:52;95191.28;;;14.25;79.45
5954;BME280;3002;42.642;24.812;2023-04-01T19:11:12;95170.66;;;14.45;76.57
5954;BME280;3002;42.642;24.812;2023-04-01T19:14:05;95185.66;;;14.30;76.93
5954;BME280;3002;42.642;24.812;2023-04-01T19:17:19;95199.69;;;14.48;78.27
5954;BME280;3002;42.642;24.812;2023-04-01T19:20:06;95141.28;;;13.87;77.97
5954;BME280;3002;42.642;24.812;2023-04-01T19:22:42;95180.03;;;14.35;77.39
5954;BME280;3002;42.642;24.812;2023-04-01T19:25:27;95155.75;;;14.35;77.46
5954;BME280;3002;42.642;24.812;2023-04-01T19:30:57;95195.75;;;13.93;79.76
5954;BME280;3002;42.642;24.812;2023-04-01T19:33:52;95194.28;;;13.83;80.03
5954;BME280;3002;42.642;24.812;2023-04-01T19:36:49;95210.66;;;14.03;76.68
5954;BME280;3002;42.642;24.812;2023-04-01T19:39:35;95182.16;;;13.65;79.22
5954;BME280;3002;42.642;24.812;2023-04-01T19:50:42;95180.59;;;13.64;74.05
5954;BME280;3002;42.642;24.812;2023-04-01T19:53:30;95207.19;;;13.78;73.54
5954;BME280;3002;42.642;24.812;2023-04-01T19:56:17;95200.94;;;13.61;73.94
5954;BME280;3002;42.642;24.812;2023-04-01T20:03:55;95186.09;;;13.31;72.87
5954;BME280;3002;42.642;24.812;2023-04-01T20:06:42;95235.69;;;13.42;75.63
5954;BME280;3002;42.642;24.812;2023-04-01T20:09:35;95250.50;;;13.03;80.03
5954;BME280;3002;42.642;24.812;2023-04-01T20:12:38;95249.72;;;13.02;82.31
5954;BME280;3002;42.642;24.812;2023-04-01T20:15:35;95261.78;;;12.84;83.32
5954;BME280;3002;42.642;24.812;2023-04-01T20:18:11;95264.91;;;12.65;84.96
5954;BME280;3002;42.642;24.812;2023-04-01T20:20:39;95244.53;;;12.64;83.40
5954;BME280;3002;42.642;24.812;2023-04-01T20:23:33;95255.59;;;12.83;82.58
5954;BME280;3002;42.642;24.812;2023-04-01T20:26:07;95197.69;;;12.65;79.27
5954;BME280;3002;42.642;24.812;2023-04-01T20:32:04;95264.38;;;12.93;76.50
5954;BME280;3002;42.642;24.812;2023-04-01T20:40:26;95277.44;;;12.82;74.76
5954;BME280;3002;42.642;24.812;2023-04-01T20:46:07;95283.78;;;12.98;72.66
5954;BME280;3002;42.642;24.812;2023-04-01T20:51:30;95274.31;;;12.80;73.84
5954;BME280;3002;42.642;24.812;2023-04-01T20:54:11;95292.28;;;12.67;75.03
5954;BME280;3002;42.642;24.812;2023-04-01T20:57:04;95286.63;;;12.81;73.57
5954;BME280;3002;42.642;24.812;2023-04-01T21:02:56;95298.66;;;12.63;72.01
5954;BME280;3002;42.642;24.812;2023-04-01T21:16:43;95316.34;;;12.43;73.57
5954;BME280;3002;42.642;24.812;2023-04-01T21:28:11;95343.94;;;12.01;82.79
5954;BME280;3002;42.642;24.812;2023-04-01T21:39:39;95350.13;;;11.93;78.74
5954;BME280;3002;42.642;24.812;2023-04-01T21:50:54;95344.00;;;11.84;81.21
5954;BME280;3002;42.642;24.812;2023-04-01T22:01:11;95334.28;;;11.45;86.51
5954;BME280;3002;42.642;24.812;2023-04-01T22:09:38;95336.44;;;10.96;90.30
5954;BME280;3002;42.642;24.812;2023-04-01T22:11:58;95334.69;;;10.57;92.18
5954;BME280;3002;42.642;24.812;2023-04-01T22:14:36;95340.69;;;10.88;92.04
5954;BME280;3002;42.642;24.812;2023-04-01T22:17:20;95348.09;;;11.09;87.29
5954;BME280;3002;42.642;24.812;2023-04-01T22:25:11;95344.63;;;10.91;84.35
5954;BME280;3002;42.642;24.812;2023-04-01T22:28:00;95351.56;;;11.09;81.45
5954;BME280;3002;42.642;24.812;2023-04-01T22:30:33;95366.03;;;11.43;78.91
5954;BME280;3002;42.642;24.812;2023-04-01T22:33:38;95366.03;;;11.43;77.61
5954;BME280;3002;42.642;24.812;2023-04-01T22:36:38;95368.44;;;11.36;78.03
5954;BME280;3002;42.642;24.812;2023-04-01T22:50:29;95369.06;;;11.33;77.54
5954;BME280;3002;42.642;24.812;2023-04-01T22:55:42;95360.88;;;11.20;78.74
5954;BME280;3002;42.642;24.812;2023-04-01T22:58:14;95356.88;;;11.52;76.72
5954;BME280;3002;42.642;24.812;2023-04-01T23:00:50;95383.13;;;11.30;77.04
5954;BME280;3002;42.642;24.812;2023-04-01T23:03:36;95362.41;;;11.47;75.95
5954;BME280;3002;42.642;24.812;2023-04-01T23:06:19;95378.28;;;11.78;74.81
5954;BME280;3002;42.642;24.812;2023-04-01T23:11:27;95378.47;;;11.65;73.77
5954;BME280;3002;42.642;24.812;2023-04-01T23:33:29;95425.94;;;10.34;86.58
5954;BME280;3002;42.642;24.812;2023-04-01T23:35:57;95412.84;;;10.33;86.51